»·PEaware :: N172SB KPSP-KLAX

N172SB :: KPSP-KLAX

FLIGHT INFORMATION

Flight Status: Arrived
Operator: Privately registered:
United States
More flights under this callsign
Pilot: Marc M. (22919)
Aircraft: CESSNA 172 SKYHAWK
(C172)
More flights by this aircraft type
Origin: KPSP Palm Springs Intl
United States
Destination: KLAX Los Angeles Intl
United States
More flights between these airports :: More routes between these airports
Route: +CATH1 PSP V388 PDZ LAHAB
File this flight plan on PilotEdge
Remarks:
Altitude:
(Current/Filed)
8,000ft
Speed:
(Current/Filed)
485kts
Departed: 11-Jan-19 05:15 PM
Arrived: 11-Jan-19 06:19 PM
Distance/Time
Traveled:
94nm/1:04
Distance/Time
To Go:
Arrived

Flight Plot

Page will automatically refresh every two minutes.

Flight plan parsing failed; only flown route is shown


Map Options




Map Legend


Flown Route
Filed Route
Departure Airport
Arrival Airport
Navaid (VOR, NDB)
Fix

Horizontal Profiles

Position Reports

Time Latitude Longitude Heading Altitude Ground
Speed
11-Jan-19 16:55 33.821030 -116.496228 55 392ft 0kts
11-Jan-19 16:56 33.821030 -116.496228 55 392ft 0kts
11-Jan-19 16:57 33.821030 -116.496228 55 392ft 0kts
11-Jan-19 16:58 33.821030 -116.496228 55 392ft 0kts
11-Jan-19 16:59 33.821030 -116.496228 55 392ft 0kts
11-Jan-19 17:00 33.821030 -116.496228 55 392ft 0kts
11-Jan-19 17:01 33.821030 -116.496228 55 392ft 0kts
11-Jan-19 17:02 33.821030 -116.496228 55 392ft 0kts
11-Jan-19 17:03 33.821030 -116.496228 55 392ft 0kts
11-Jan-19 17:04 33.821030 -116.496228 55 392ft 0kts
11-Jan-19 17:05 33.821030 -116.496228 55 392ft 0kts
11-Jan-19 17:06 33.821030 -116.496228 55 392ft 0kts
11-Jan-19 17:07 33.821030 -116.496228 55 392ft 0kts
11-Jan-19 17:08 33.821030 -116.496228 55 392ft 0kts
11-Jan-19 17:09 33.821030 -116.496228 55 392ft 0kts
11-Jan-19 17:10 33.821809 -116.496585 319 394ft 17kts
11-Jan-19 17:11 33.824594 -116.499603 253 402ft 0kts
11-Jan-19 17:12 33.825176 -116.499879 220 404ft 0kts
11-Jan-19 17:13 33.824887 -116.500531 325 405ft 21kts
11-Jan-19 17:14 33.840737 -116.517035 324 724ft 109kts
11-Jan-19 17:15 33.865675 -116.539968 321 1389ft 108kts
11-Jan-19 17:16 33.888887 -116.561445 340 2182ft 104kts
11-Jan-19 17:17 33.900185 -116.540318 109 2947ft 96kts
11-Jan-19 17:18 33.891941 -116.510528 109 3746ft 92kts
11-Jan-19 17:19 33.884371 -116.481719 109 4549ft 88kts
11-Jan-19 17:20 33.877104 -116.454341 110 5350ft 83kts
11-Jan-19 17:21 33.870178 -116.428767 104 6148ft 78kts
11-Jan-19 17:22 33.888661 -116.418747 328 6816ft 93kts
11-Jan-19 17:23 33.892366 -116.447362 260 7431ft 92kts
11-Jan-19 17:24 33.890833 -116.478319 260 8036ft 92kts
11-Jan-19 17:25 33.890737 -116.508935 277 8637ft 93kts
11-Jan-19 17:26 33.897576 -116.538359 279 9240ft 89kts
11-Jan-19 17:27 33.904327 -116.565844 278 9839ft 82kts
11-Jan-19 17:28 33.912257 -116.597317 281 9918ft 106kts
11-Jan-19 17:29 33.914234 -116.604934 281 9918ft 106kts
11-Jan-19 17:30 33.922888 -116.638713 281 9918ft 105kts
11-Jan-19 17:31 33.931433 -116.672367 280 9914ft 106kts
11-Jan-19 17:32 33.940015 -116.706304 280 9909ft 106kts
11-Jan-19 17:33 33.948027 -116.740236 266 9904ft 103kts
11-Jan-19 17:34 33.947273 -116.774525 261 9899ft 102kts
11-Jan-19 17:35 33.946172 -116.808844 261 9894ft 102kts
11-Jan-19 17:36 33.944944 -116.841286 260 10013ft 96kts
11-Jan-19 17:37 33.943659 -116.874303 261 10012ft 100kts
11-Jan-19 17:38 33.942427 -116.909532 261 9543ft 104kts
11-Jan-19 17:39 33.941489 -116.935873 260 9172ft 104kts
11-Jan-19 17:40 33.940030 -116.975239 260 8478ft 123kts
11-Jan-19 17:41 33.939465 -116.990465 261 8192ft 124kts
11-Jan-19 17:42 33.937927 -117.031030 260 8010ft 120kts
11-Jan-19 17:43 33.936379 -117.071099 259 8010ft 120kts
11-Jan-19 17:44 33.934837 -117.111486 259 8011ft 121kts
11-Jan-19 17:45 33.933281 -117.152099 258 8010ft 121kts
11-Jan-19 17:46 33.931716 -117.192709 258 8008ft 121kts
11-Jan-19 17:47 33.930106 -117.232945 258 8007ft 120kts
11-Jan-19 17:48 33.928463 -117.273234 258 8005ft 120kts
11-Jan-19 17:49 33.926830 -117.313042 258 8004ft 119kts
11-Jan-19 17:50 33.925241 -117.352873 258 8002ft 119kts
11-Jan-19 17:51 33.923651 -117.392779 258 7995ft 120kts
11-Jan-19 17:52 33.922004 -117.433205 258 7984ft 122kts
11-Jan-19 17:53 33.917692 -117.473282 218 7971ft 113kts
11-Jan-19 17:54 33.920179 -117.513549 281 7963ft 132kts
11-Jan-19 17:55 33.929954 -117.556312 281 7955ft 133kts
11-Jan-19 17:57 33.939201 -117.599633 281 7948ft 133kts
11-Jan-19 17:58 33.948523 -117.642704 281 7942ft 133kts
11-Jan-19 17:59 33.958689 -117.684725 281 7954ft 130kts
11-Jan-19 18:00 33.961953 -117.726417 261 7965ft 123kts
11-Jan-19 18:01 33.961862 -117.767092 261 7975ft 120kts
11-Jan-19 18:02 33.961990 -117.806855 261 7984ft 116kts
11-Jan-19 18:03 33.962150 -117.845306 261 7992ft 113kts
11-Jan-19 18:04 33.962313 -117.882854 261 7993ft 113kts
11-Jan-19 18:05 33.962422 -117.921405 261 7510ft 117kts
11-Jan-19 18:06 33.962063 -117.961239 261 6721ft 119kts
11-Jan-19 18:07 33.961317 -118.000956 261 5933ft 114kts
11-Jan-19 18:08 33.960473 -118.038293 261 5143ft 111kts
11-Jan-19 18:09 33.959269 -118.075386 261 4352ft 111kts
11-Jan-19 18:10 33.957730 -118.112161 261 3993ft 112kts
11-Jan-19 18:11 33.955987 -118.150578 261 3993ft 116kts
11-Jan-19 18:12 33.954187 -118.189808 261 3994ft 118kts
11-Jan-19 18:13 33.952297 -118.229510 261 3995ft 119kts
11-Jan-19 18:14 33.951304 -118.269685 263 3603ft 110kts
11-Jan-19 18:15 33.947204 -118.300449 253 2850ft 93kts
11-Jan-19 18:15 33.943490 -118.325151 264 2117ft 77kts
11-Jan-19 18:16 33.940615 -118.351225 261 1363ft 72kts
11-Jan-19 18:18 33.938029 -118.377024 259 315ft 68kts
11-Jan-19 18:19 33.935999 -118.391091 148 102ft 7kts

Navigation Log

Ident Type
Flight plan parsing failed, navigation log unavailable